Terminal Aerodrome Forecast
Issued by NWS Charleston, WV

Current Version | Previous Version | Graphics & Text | Print | Product List | Glossary On
Versions: 1 2 3 4 5 6 7 8 9 10 11 12 13 14 15 16 17 18 19 20 21 22 23 24
000
FTUS41 KRLX 040234 AAA
TAFHTS
TAF AMD
KHTS 040234Z 0403/0424 VRB03KT 6SM HZ SKC
     FM040400 00000KT 5SM BR SCT100
     FM040800 00000KT 1SM BR SCT001
     FM041300 00000KT P6SM SCT040
     FM041700 VRB03KT P6SM VCTS SCT035CB=

USA.gov is the U.S. government's official web portal to all federal, state and local government web resources and services.